Willcox, AZ (85643)

3:21 PM MST on September 03, 2015 (GMT -0700)
14 miles North West of Willcox | | Change Station
CLOSE
Current Station
Personal Weather Station
Location: Willcox, AZ
Elevation: 4275 ft
Nearby Weather Stations

Elev 4275 ft 32.38 °N, 109.95 °W | Updated 18 seconds ago

Partly Cloudy
Partly Cloudy
65.3 °F
Feels Like 65.3 °F
N
8.9
Wind Variable Wind from NW
Gusts 17.0 mph

Today
High -- | Low -- °F
--% Chance of Precip.
Yesterday
High -- | Low -- °F
Precip. -- in
5:55 AM 6:41 PM
Waning Gibbous, 66% visible
Pressure 29.79 in
Visibility 10.0 miles
Clouds Clear
Dew Point 58 °F
Humidity 77%
Rainfall 0.00 in
Snow Depth Not available.
UV 7 out of 12
Pollen .70 out of 12
Air Quality Not available.
Flu Activity Not available.
METAR KSAD 032151Z AUTO 26008KT 10SM CLR 29/14 A2993 RMK AO2 LTG DSNT SW AND W SLP087 T02890144
Pressure 29.79 in
Visibility 10.0 miles
Clouds Clear
Dew Point 58 °F
Humidity 77%
Rainfall 0.00 in
Snow Depth Not available.
UV 7 out of 12
Pollen .70 out of 12
Air Quality Not available.
Flu Activity Not available.
METAR KSAD 032151Z AUTO 26008KT 10SM CLR 29/14 A2993 RMK AO2 LTG DSNT SW AND W SLP087 T02890144
Nowcast | as of 1:35 PM MST on September 3, 2015

Showers and thunderstorms continue to gradually increase in coverage across parts of Pima and Santa Cruz counties early this afternoon. Additional thunderstorm development is expected through this afternoon over portions of Cochise...Graham...and Greenlee counties. These showers and storms will be capable of producing heavy rainfall...with amounts of one quarter to three quarters of an inch with localized amounts in excess of one inch...small hail...and wind gusts of 45 mph. Storm motions will be towards the northeast at around 15 mph.

×

10-Day Weather Forecast

×

Almanac

Astronomy

Sep. 03, 2015 Rise Set
Actual Time
Civil Twilight
Nautical Twilight
Astronomical Twilight
Moon
Length of Visible Light
Length of Day
Tomorrow will be .
, % of the Moon is Illuminated

Today's Extremes

State Highs State Lows

Community

WunderPhotos

Upload Photos

1,852,048 photos uploaded!

WunderBlogs® & News

Nearby

Air Quality

  Air Quality AQ Index Pollutant
Not available.

Snow Depth

Station Depth Elevation

Earthquake Activity

City Distance Mag. Time & Date
Minimum magnitude displayed is 2.5.

Coastal Water Temperatures

Place Temperature

Stations

Nearby Weather Stations

Station Location Temp. Windchill Dew Point Humidity Wind Precip. Elev Updated Type